METAR Data
IDs: Format: Raw Decoded Include TAF

Data at: 0248 UTC 29 May 2022

LFLY 290230Z AUTO 34009KT CAVOK 12/04 Q1012 NOSIG